sensor_id;sensor_type;location;lat;lon;timestamp;P1;durP1;ratioP1;P2;durP2;ratioP2
13114;SDS011;6623;52.120;8.660;2023-11-19T00:00:19;0.30;;;0.30;;
13114;SDS011;6623;52.120;8.660;2023-11-19T00:02:45;0.37;;;0.30;;
13114;SDS011;6623;52.120;8.660;2023-11-19T00:05:12;0.40;;;0.40;;
13114;SDS011;6623;52.120;8.660;2023-11-19T00:07:38;0.43;;;0.43;;
13114;SDS011;6623;52.120;8.660;2023-11-19T00:10:06;0.30;;;0.30;;
13114;SDS011;6623;52.120;8.660;2023-11-19T00:12:39;0.40;;;0.40;;
13114;SDS011;6623;52.120;8.660;2023-11-19T00:15:07;0.30;;;0.30;;
13114;SDS011;6623;52.120;8.660;2023-11-19T00:17:36;0.40;;;0.40;;
13114;SDS011;6623;52.120;8.660;2023-11-19T00:20:03;0.30;;;0.30;;
13114;SDS011;6623;52.120;8.660;2023-11-19T00:22:30;0.30;;;0.30;;
13114;SDS011;6623;52.120;8.660;2023-11-19T00:24:56;0.30;;;0.30;;
13114;SDS011;6623;52.120;8.660;2023-11-19T00:27:22;0.47;;;0.47;;
13114;SDS011;6623;52.120;8.660;2023-11-19T00:29:47;0.87;;;0.40;;
13114;SDS011;6623;52.120;8.660;2023-11-19T00:32:13;0.30;;;0.30;;
13114;SDS011;6623;52.120;8.660;2023-11-19T00:34:38;0.30;;;0.30;;
13114;SDS011;6623;52.120;8.660;2023-11-19T00:37:04;0.20;;;0.20;;
13114;SDS011;6623;52.120;8.660;2023-11-19T00:39:29;0.90;;;0.43;;
13114;SDS011;6623;52.120;8.660;2023-11-19T00:41:55;0.77;;;0.40;;
13114;SDS011;6623;52.120;8.660;2023-11-19T00:44:20;0.50;;;0.40;;
13114;SDS011;6623;52.120;8.660;2023-11-19T00:46:46;0.30;;;0.30;;
13114;SDS011;6623;52.120;8.660;2023-11-19T00:49:12;0.20;;;0.20;;
13114;SDS011;6623;52.120;8.660;2023-11-19T00:51:37;0.23;;;0.23;;
13114;SDS011;6623;52.120;8.660;2023-11-19T00:54:03;0.30;;;0.30;;
13114;SDS011;6623;52.120;8.660;2023-11-19T00:56:29;0.53;;;0.43;;
13114;SDS011;6623;52.120;8.660;2023-11-19T00:58:54;0.30;;;0.30;;
13114;SDS011;6623;52.120;8.660;2023-11-19T01:01:20;0.23;;;0.23;;
13114;SDS011;6623;52.120;8.660;2023-11-19T01:03:46;0.20;;;0.20;;
13114;SDS011;6623;52.120;8.660;2023-11-19T01:06:12;0.30;;;0.30;;
13114;SDS011;6623;52.120;8.660;2023-11-19T01:08:39;0.30;;;0.30;;
13114;SDS011;6623;52.120;8.660;2023-11-19T01:11:04;0.30;;;0.23;;
13114;SDS011;6623;52.120;8.660;2023-11-19T01:13:30;0.40;;;0.40;;
13114;SDS011;6623;52.120;8.660;2023-11-19T01:15:55;0.30;;;0.30;;
13114;SDS011;6623;52.120;8.660;2023-11-19T01:18:21;0.50;;;0.40;;
13114;SDS011;6623;52.120;8.660;2023-11-19T01:20:47;0.50;;;0.30;;
13114;SDS011;6623;52.120;8.660;2023-11-19T01:23:12;0.27;;;0.27;;
13114;SDS011;6623;52.120;8.660;2023-11-19T01:25:38;0.27;;;0.27;;
13114;SDS011;6623;52.120;8.660;2023-11-19T01:28:03;0.20;;;0.20;;
13114;SDS011;6623;52.120;8.660;2023-11-19T01:30:29;0.30;;;0.30;;
13114;SDS011;6623;52.120;8.660;2023-11-19T01:32:55;0.97;;;0.30;;
13114;SDS011;6623;52.120;8.660;2023-11-19T01:35:21;0.23;;;0.23;;
13114;SDS011;6623;52.120;8.660;2023-11-19T01:37:48;0.40;;;0.40;;
13114;SDS011;6623;52.120;8.660;2023-11-19T01:40:13;0.20;;;0.20;;
13114;SDS011;6623;52.120;8.660;2023-11-19T01:42:40;0.30;;;0.30;;
13114;SDS011;6623;52.120;8.660;2023-11-19T01:45:06;0.20;;;0.20;;
13114;SDS011;6623;52.120;8.660;2023-11-19T01:47:34;0.50;;;0.30;;
13114;SDS011;6623;52.120;8.660;2023-11-19T01:50:00;0.37;;;0.30;;
13114;SDS011;6623;52.120;8.660;2023-11-19T01:52:31;0.30;;;0.20;;
13114;SDS011;6623;52.120;8.660;2023-11-19T01:54:59;0.50;;;0.30;;
13114;SDS011;6623;52.120;8.660;2023-11-19T01:57:25;0.30;;;0.30;;
13114;SDS011;6623;52.120;8.660;2023-11-19T01:59:51;0.40;;;0.40;;
13114;SDS011;6623;52.120;8.660;2023-11-19T02:02:18;0.20;;;0.20;;
13114;SDS011;6623;52.120;8.660;2023-11-19T02:04:49;0.20;;;0.20;;
13114;SDS011;6623;52.120;8.660;2023-11-19T02:07:15;0.50;;;0.40;;
13114;SDS011;6623;52.120;8.660;2023-11-19T02:09:42;0.17;;;0.17;;
13114;SDS011;6623;52.120;8.660;2023-11-19T02:12:08;0.20;;;0.20;;
13114;SDS011;6623;52.120;8.660;2023-11-19T02:14:36;0.30;;;0.30;;
13114;SDS011;6623;52.120;8.660;2023-11-19T02:17:02;0.20;;;0.20;;
13114;SDS011;6623;52.120;8.660;2023-11-19T02:19:28;0.30;;;0.30;;
13114;SDS011;6623;52.120;8.660;2023-11-19T02:21:54;0.30;;;0.30;;
13114;SDS011;6623;52.120;8.660;2023-11-19T02:24:20;0.30;;;0.30;;
13114;SDS011;6623;52.120;8.660;2023-11-19T02:29:23;0.23;;;0.23;;
13114;SDS011;6623;52.120;8.660;2023-11-19T02:31:49;0.30;;;0.30;;
13114;SDS011;6623;52.120;8.660;2023-11-19T02:34:14;0.30;;;0.30;;
13114;SDS011;6623;52.120;8.660;2023-11-19T02:36:41;0.37;;;0.37;;
13114;SDS011;6623;52.120;8.660;2023-11-19T02:39:07;0.20;;;0.20;;
13114;SDS011;6623;52.120;8.660;2023-11-19T02:41:36;0.20;;;0.20;;
13114;SDS011;6623;52.120;8.660;2023-11-19T02:44:01;0.37;;;0.30;;
13114;SDS011;6623;52.120;8.660;2023-11-19T02:46:28;0.20;;;0.20;;
13114;SDS011;6623;52.120;8.660;2023-11-19T02:48:53;0.20;;;0.20;;
13114;SDS011;6623;52.120;8.660;2023-11-19T02:51:19;0.20;;;0.20;;
13114;SDS011;6623;52.120;8.660;2023-11-19T02:53:44;0.10;;;0.10;;
13114;SDS011;6623;52.120;8.660;2023-11-19T02:56:13;0.40;;;0.40;;
13114;SDS011;6623;52.120;8.660;2023-11-19T02:58:50;0.40;;;0.40;;
13114;SDS011;6623;52.120;8.660;2023-11-19T03:01:21;0.60;;;0.37;;
13114;SDS011;6623;52.120;8.660;2023-11-19T03:03:56;0.30;;;0.30;;
13114;SDS011;6623;52.120;8.660;2023-11-19T03:06:23;0.60;;;0.30;;
13114;SDS011;6623;52.120;8.660;2023-11-19T03:08:49;0.20;;;0.20;;
13114;SDS011;6623;52.120;8.660;2023-11-19T03:11:14;0.20;;;0.20;;
13114;SDS011;6623;52.120;8.660;2023-11-19T03:13:40;0.30;;;0.30;;
13114;SDS011;6623;52.120;8.660;2023-11-19T03:16:06;0.30;;;0.30;;
13114;SDS011;6623;52.120;8.660;2023-11-19T03:18:32;0.30;;;0.30;;
13114;SDS011;6623;52.120;8.660;2023-11-19T03:20:58;0.23;;;0.23;;
13114;SDS011;6623;52.120;8.660;2023-11-19T03:23:23;0.20;;;0.20;;
13114;SDS011;6623;52.120;8.660;2023-11-19T03:25:52;0.30;;;0.30;;
13114;SDS011;6623;52.120;8.660;2023-11-19T03:28:18;0.60;;;0.30;;
13114;SDS011;6623;52.120;8.660;2023-11-19T03:30:44;0.30;;;0.30;;
13114;SDS011;6623;52.120;8.660;2023-11-19T03:33:09;0.57;;;0.27;;
13114;SDS011;6623;52.120;8.660;2023-11-19T03:35:35;0.20;;;0.20;;
13114;SDS011;6623;52.120;8.660;2023-11-19T03:38:00;0.23;;;0.23;;
13114;SDS011;6623;52.120;8.660;2023-11-19T03:40:26;0.20;;;0.17;;
13114;SDS011;6623;52.120;8.660;2023-11-19T03:42:52;0.20;;;0.20;;
13114;SDS011;6623;52.120;8.660;2023-11-19T03:45:18;0.73;;;0.20;;
13114;SDS011;6623;52.120;8.660;2023-11-19T03:47:43;0.13;;;0.13;;
13114;SDS011;6623;52.120;8.660;2023-11-19T03:50:09;0.13;;;0.13;;
13114;SDS011;6623;52.120;8.660;2023-11-19T03:52:35;0.30;;;0.30;;
13114;SDS011;6623;52.120;8.660;2023-11-19T03:55:00;0.30;;;0.30;;
13114;SDS011;6623;52.120;8.660;2023-11-19T03:57:28;0.20;;;0.20;;
13114;SDS011;6623;52.120;8.660;2023-11-19T03:59:53;0.20;;;0.20;;
13114;SDS011;6623;52.120;8.660;2023-11-19T04:02:20;0.20;;;0.20;;
13114;SDS011;6623;52.120;8.660;2023-11-19T04:04:46;0.27;;;0.27;;
13114;SDS011;6623;52.120;8.660;2023-11-19T04:07:12;0.27;;;0.27;;
13114;SDS011;6623;52.120;8.660;2023-11-19T04:09:37;0.23;;;0.23;;
13114;SDS011;6623;52.120;8.660;2023-11-19T04:12:03;0.27;;;0.27;;
13114;SDS011;6623;52.120;8.660;2023-11-19T04:14:29;0.20;;;0.20;;
13114;SDS011;6623;52.120;8.660;2023-11-19T04:16:54;0.40;;;0.40;;
13114;SDS011;6623;52.120;8.660;2023-11-19T04:19:20;0.30;;;0.30;;
13114;SDS011;6623;52.120;8.660;2023-11-19T04:21:45;0.37;;;0.37;;
13114;SDS011;6623;52.120;8.660;2023-11-19T04:24:11;0.43;;;0.30;;
13114;SDS011;6623;52.120;8.660;2023-11-19T04:26:42;0.70;;;0.30;;
13114;SDS011;6623;52.120;8.660;2023-11-19T04:29:10;0.17;;;0.17;;
13114;SDS011;6623;52.120;8.660;2023-11-19T04:31:37;0.37;;;0.30;;
13114;SDS011;6623;52.120;8.660;2023-11-19T04:34:04;0.50;;;0.30;;
13114;SDS011;6623;52.120;8.660;2023-11-19T04:36:31;0.30;;;0.20;;
13114;SDS011;6623;52.120;8.660;2023-11-19T04:38:58;0.30;;;0.30;;
13114;SDS011;6623;52.120;8.660;2023-11-19T04:41:24;0.30;;;0.30;;
13114;SDS011;6623;52.120;8.660;2023-11-19T04:43:50;0.20;;;0.20;;
13114;SDS011;6623;52.120;8.660;2023-11-19T04:46:16;0.50;;;0.40;;
13114;SDS011;6623;52.120;8.660;2023-11-19T04:48:41;0.30;;;0.30;;
13114;SDS011;6623;52.120;8.660;2023-11-19T04:51:07;0.30;;;0.20;;
13114;SDS011;6623;52.120;8.660;2023-11-19T04:53:34;0.30;;;0.30;;
13114;SDS011;6623;52.120;8.660;2023-11-19T04:56:00;0.30;;;0.30;;
13114;SDS011;6623;52.120;8.660;2023-11-19T04:58:25;0.37;;;0.37;;
13114;SDS011;6623;52.120;8.660;2023-11-19T05:00:54;0.30;;;0.30;;
13114;SDS011;6623;52.120;8.660;2023-11-19T05:03:19;0.20;;;0.20;;
13114;SDS011;6623;52.120;8.660;2023-11-19T05:05:45;0.30;;;0.30;;
13114;SDS011;6623;52.120;8.660;2023-11-19T05:08:10;0.50;;;0.33;;
13114;SDS011;6623;52.120;8.660;2023-11-19T05:10:36;0.47;;;0.40;;
13114;SDS011;6623;52.120;8.660;2023-11-19T05:13:02;0.30;;;0.30;;
13114;SDS011;6623;52.120;8.660;2023-11-19T05:15:27;0.20;;;0.20;;
13114;SDS011;6623;52.120;8.660;2023-11-19T05:17:53;0.30;;;0.23;;
13114;SDS011;6623;52.120;8.660;2023-11-19T05:20:18;0.47;;;0.30;;
13114;SDS011;6623;52.120;8.660;2023-11-19T05:22:44;0.30;;;0.30;;
13114;SDS011;6623;52.120;8.660;2023-11-19T05:25:10;0.27;;;0.27;;
13114;SDS011;6623;52.120;8.660;2023-11-19T05:27:37;0.77;;;0.47;;
13114;SDS011;6623;52.120;8.660;2023-11-19T05:30:06;0.40;;;0.30;;
13114;SDS011;6623;52.120;8.660;2023-11-19T05:32:32;0.40;;;0.30;;
13114;SDS011;6623;52.120;8.660;2023-11-19T05:34:58;0.20;;;0.20;;
13114;SDS011;6623;52.120;8.660;2023-11-19T05:37:23;0.20;;;0.20;;
13114;SDS011;6623;52.120;8.660;2023-11-19T05:39:50;0.40;;;0.37;;
13114;SDS011;6623;52.120;8.660;2023-11-19T05:42:15;0.30;;;0.30;;
13114;SDS011;6623;52.120;8.660;2023-11-19T05:44:42;0.60;;;0.40;;
13114;SDS011;6623;52.120;8.660;2023-11-19T05:47:07;0.20;;;0.20;;
13114;SDS011;6623;52.120;8.660;2023-11-19T05:49:33;0.40;;;0.40;;
13114;SDS011;6623;52.120;8.660;2023-11-19T05:51:58;0.47;;;0.40;;
13114;SDS011;6623;52.120;8.660;2023-11-19T05:54:24;0.50;;;0.30;;
13114;SDS011;6623;52.120;8.660;2023-11-19T05:56:50;0.90;;;0.40;;
13114;SDS011;6623;52.120;8.660;2023-11-19T05:59:18;0.30;;;0.30;;
13114;SDS011;6623;52.120;8.660;2023-11-19T06:01:44;0.40;;;0.40;;
13114;SDS011;6623;52.120;8.660;2023-11-19T06:04:10;0.43;;;0.40;;
13114;SDS011;6623;52.120;8.660;2023-11-19T06:06:36;0.50;;;0.30;;
13114;SDS011;6623;52.120;8.660;2023-11-19T06:09:02;0.33;;;0.33;;
13114;SDS011;6623;52.120;8.660;2023-11-19T06:11:28;0.37;;;0.37;;
13114;SDS011;6623;52.120;8.660;2023-11-19T06:13:53;0.63;;;0.40;;
13114;SDS011;6623;52.120;8.660;2023-11-19T06:16:19;0.60;;;0.40;;
13114;SDS011;6623;52.120;8.660;2023-11-19T06:18:45;0.73;;;0.33;;
13114;SDS011;6623;52.120;8.660;2023-11-19T06:21:11;0.40;;;0.30;;
13114;SDS011;6623;52.120;8.660;2023-11-19T06:23:37;0.57;;;0.30;;
13114;SDS011;6623;52.120;8.660;2023-11-19T06:26:02;0.50;;;0.40;;
13114;SDS011;6623;52.120;8.660;2023-11-19T06:28:28;0.30;;;0.30;;
13114;SDS011;6623;52.120;8.660;2023-11-19T06:30:54;0.40;;;0.40;;
13114;SDS011;6623;52.120;8.660;2023-11-19T06:33:19;0.30;;;0.30;;
13114;SDS011;6623;52.120;8.660;2023-11-19T06:35:45;0.50;;;0.43;;
13114;SDS011;6623;52.120;8.660;2023-11-19T06:38:10;0.60;;;0.40;;
13114;SDS011;6623;52.120;8.660;2023-11-19T06:40:36;0.40;;;0.30;;
13114;SDS011;6623;52.120;8.660;2023-11-19T06:43:02;0.60;;;0.40;;
13114;SDS011;6623;52.120;8.660;2023-11-19T06:45:33;0.70;;;0.40;;
13114;SDS011;6623;52.120;8.660;2023-11-19T06:48:01;0.67;;;0.40;;
13114;SDS011;6623;52.120;8.660;2023-11-19T06:50:33;0.30;;;0.30;;
13114;SDS011;6623;52.120;8.660;2023-11-19T06:52:59;0.30;;;0.30;;
13114;SDS011;6623;52.120;8.660;2023-11-19T06:55:25;0.63;;;0.30;;
13114;SDS011;6623;52.120;8.660;2023-11-19T06:57:51;0.57;;;0.40;;
13114;SDS011;6623;52.120;8.660;2023-11-19T07:00:17;0.40;;;0.40;;
13114;SDS011;6623;52.120;8.660;2023-11-19T07:02:43;0.93;;;0.50;;
13114;SDS011;6623;52.120;8.660;2023-11-19T07:05:09;1.03;;;0.50;;
13114;SDS011;6623;52.120;8.660;2023-11-19T07:07:35;0.67;;;0.40;;
13114;SDS011;6623;52.120;8.660;2023-11-19T07:10:00;0.53;;;0.40;;
13114;SDS011;6623;52.120;8.660;2023-11-19T07:12:27;0.50;;;0.50;;
13114;SDS011;6623;52.120;8.660;2023-11-19T07:14:52;0.87;;;0.30;;
13114;SDS011;6623;52.120;8.660;2023-11-19T07:17:20;0.57;;;0.50;;
13114;SDS011;6623;52.120;8.660;2023-11-19T07:19:54;0.97;;;0.40;;
13114;SDS011;6623;52.120;8.660;2023-11-19T07:22:20;0.73;;;0.40;;
13114;SDS011;6623;52.120;8.660;2023-11-19T07:24:45;0.83;;;0.50;;
13114;SDS011;6623;52.120;8.660;2023-11-19T07:27:11;0.63;;;0.50;;
13114;SDS011;6623;52.120;8.660;2023-11-19T07:29:37;0.83;;;0.40;;
13114;SDS011;6623;52.120;8.660;2023-11-19T07:32:03;0.67;;;0.40;;
13114;SDS011;6623;52.120;8.660;2023-11-19T07:34:30;0.77;;;0.40;;
13114;SDS011;6623;52.120;8.660;2023-11-19T07:36:55;1.07;;;0.40;;
13114;SDS011;6623;52.120;8.660;2023-11-19T07:39:27;0.40;;;0.40;;
13114;SDS011;6623;52.120;8.660;2023-11-19T07:41:52;0.90;;;0.50;;
13114;SDS011;6623;52.120;8.660;2023-11-19T07:44:18;1.13;;;0.70;;
13114;SDS011;6623;52.120;8.660;2023-11-19T07:46:44;0.80;;;0.50;;
13114;SDS011;6623;52.120;8.660;2023-11-19T07:49:10;1.30;;;0.60;;
13114;SDS011;6623;52.120;8.660;2023-11-19T07:51:36;0.50;;;0.40;;
13114;SDS011;6623;52.120;8.660;2023-11-19T07:54:01;0.43;;;0.40;;
13114;SDS011;6623;52.120;8.660;2023-11-19T07:56:27;0.50;;;0.50;;
13114;SDS011;6623;52.120;8.660;2023-11-19T07:58:52;1.20;;;0.60;;
13114;SDS011;6623;52.120;8.660;2023-11-19T08:01:18;1.27;;;0.40;;
13114;SDS011;6623;52.120;8.660;2023-11-19T08:03:44;1.33;;;0.60;;
13114;SDS011;6623;52.120;8.660;2023-11-19T08:06:09;0.90;;;0.40;;
13114;SDS011;6623;52.120;8.660;2023-11-19T08:08:35;0.97;;;0.53;;
13114;SDS011;6623;52.120;8.660;2023-11-19T08:11:02;1.53;;;0.80;;
13114;SDS011;6623;52.120;8.660;2023-11-19T08:13:30;0.97;;;0.50;;
13114;SDS011;6623;52.120;8.660;2023-11-19T08:15:56;2.13;;;0.90;;
13114;SDS011;6623;52.120;8.660;2023-11-19T08:18:23;1.47;;;0.60;;
13114;SDS011;6623;52.120;8.660;2023-11-19T08:20:49;0.80;;;0.50;;
13114;SDS011;6623;52.120;8.660;2023-11-19T08:23:17;1.10;;;0.60;;
13114;SDS011;6623;52.120;8.660;2023-11-19T08:25:43;1.30;;;0.70;;
13114;SDS011;6623;52.120;8.660;2023-11-19T08:28:09;1.63;;;0.70;;
13114;SDS011;6623;52.120;8.660;2023-11-19T08:30:35;2.57;;;0.83;;
13114;SDS011;6623;52.120;8.660;2023-11-19T08:33:00;3.40;;;0.83;;
13114;SDS011;6623;52.120;8.660;2023-11-19T08:35:28;8.47;;;0.80;;
13114;SDS011;6623;52.120;8.660;2023-11-19T08:37:54;5.43;;;0.90;;
13114;SDS011;6623;52.120;8.660;2023-11-19T08:40:19;2.80;;;0.80;;
13114;SDS011;6623;52.120;8.660;2023-11-19T08:42:45;1.97;;;0.77;;
13114;SDS011;6623;52.120;8.660;2023-11-19T08:45:11;6.23;;;1.10;;
13114;SDS011;6623;52.120;8.660;2023-11-19T08:47:39;2.20;;;0.70;;
13114;SDS011;6623;52.120;8.660;2023-11-19T08:50:05;4.20;;;1.10;;
13114;SDS011;6623;52.120;8.660;2023-11-19T08:52:31;4.97;;;0.87;;
13114;SDS011;6623;52.120;8.660;2023-11-19T08:54:57;6.73;;;1.00;;
13114;SDS011;6623;52.120;8.660;2023-11-19T08:57:22;4.90;;;1.00;;
13114;SDS011;6623;52.120;8.660;2023-11-19T08:59:48;5.57;;;1.00;;
13114;SDS011;6623;52.120;8.660;2023-11-19T09:02:14;5.80;;;1.00;;
13114;SDS011;6623;52.120;8.660;2023-11-19T09:04:41;5.87;;;0.97;;
13114;SDS011;6623;52.120;8.660;2023-11-19T09:07:06;3.53;;;0.80;;
13114;SDS011;6623;52.120;8.660;2023-11-19T09:09:34;3.57;;;1.10;;
13114;SDS011;6623;52.120;8.660;2023-11-19T09:12:01;2.70;;;0.87;;
13114;SDS011;6623;52.120;8.660;2023-11-19T09:14:26;4.03;;;1.00;;
13114;SDS011;6623;52.120;8.660;2023-11-19T09:16:52;3.47;;;0.90;;
13114;SDS011;6623;52.120;8.660;2023-11-19T09:19:18;3.77;;;1.00;;
13114;SDS011;6623;52.120;8.660;2023-11-19T09:21:43;4.07;;;1.27;;
13114;SDS011;6623;52.120;8.660;2023-11-19T09:24:09;3.03;;;1.10;;
13114;SDS011;6623;52.120;8.660;2023-11-19T09:26:34;3.00;;;1.10;;
13114;SDS011;6623;52.120;8.660;2023-11-19T09:29:01;3.13;;;1.03;;
13114;SDS011;6623;52.120;8.660;2023-11-19T09:31:27;2.53;;;1.17;;
13114;SDS011;6623;52.120;8.660;2023-11-19T09:33:52;4.50;;;1.20;;
13114;SDS011;6623;52.120;8.660;2023-11-19T09:36:18;3.53;;;1.00;;
13114;SDS011;6623;52.120;8.660;2023-11-19T09:38:44;3.43;;;1.07;;
13114;SDS011;6623;52.120;8.660;2023-11-19T09:41:10;3.73;;;1.00;;
13114;SDS011;6623;52.120;8.660;2023-11-19T09:43:41;3.87;;;1.37;;
13114;SDS011;6623;52.120;8.660;2023-11-19T09:46:10;3.07;;;1.07;;
13114;SDS011;6623;52.120;8.660;2023-11-19T09:48:38;3.20;;;1.00;;
13114;SDS011;6623;52.120;8.660;2023-11-19T09:51:05;3.20;;;0.80;;
13114;SDS011;6623;52.120;8.660;2023-11-19T09:53:31;1.30;;;0.90;;
13114;SDS011;6623;52.120;8.660;2023-11-19T09:55:59;3.20;;;0.90;;
13114;SDS011;6623;52.120;8.660;2023-11-19T09:58:28;1.90;;;0.93;;
13114;SDS011;6623;52.120;8.660;2023-11-19T10:00:54;4.73;;;1.17;;
13114;SDS011;6623;52.120;8.660;2023-11-19T10:03:19;3.20;;;1.03;;
13114;SDS011;6623;52.120;8.660;2023-11-19T10:05:47;2.83;;;1.00;;
13114;SDS011;6623;52.120;8.660;2023-11-19T10:08:12;2.90;;;1.00;;
13114;SDS011;6623;52.120;8.660;2023-11-19T10:10:38;2.03;;;1.00;;
13114;SDS011;6623;52.120;8.660;2023-11-19T10:13:04;2.73;;;1.03;;
13114;SDS011;6623;52.120;8.660;2023-11-19T10:15:33;3.33;;;1.13;;
13114;SDS011;6623;52.120;8.660;2023-11-19T10:18:01;3.83;;;1.20;;
13114;SDS011;6623;52.120;8.660;2023-11-19T10:20:29;2.57;;;1.00;;
13114;SDS011;6623;52.120;8.660;2023-11-19T10:23:00;3.93;;;0.90;;
13114;SDS011;6623;52.120;8.660;2023-11-19T10:25:26;10.77;;;1.10;;
13114;SDS011;6623;52.120;8.660;2023-11-19T10:27:54;4.33;;;1.23;;
13114;SDS011;6623;52.120;8.660;2023-11-19T10:30:21;3.30;;;1.20;;
13114;SDS011;6623;52.120;8.660;2023-11-19T10:35:29;7.93;;;1.33;;
13114;SDS011;6623;52.120;8.660;2023-11-19T10:37:55;5.10;;;1.43;;
13114;SDS011;6623;52.120;8.660;2023-11-19T10:40:20;12.70;;;1.67;;
13114;SDS011;6623;52.120;8.660;2023-11-19T10:42:46;8.90;;;1.47;;
13114;SDS011;6623;52.120;8.660;2023-11-19T10:45:23;7.93;;;1.60;;
13114;SDS011;6623;52.120;8.660;2023-11-19T10:47:50;9.07;;;1.53;;
13114;SDS011;6623;52.120;8.660;2023-11-19T10:50:16;8.30;;;1.80;;
13114;SDS011;6623;52.120;8.660;2023-11-19T10:52:42;10.87;;;1.83;;
13114;SDS011;6623;52.120;8.660;2023-11-19T10:55:09;16.73;;;2.00;;
13114;SDS011;6623;52.120;8.660;2023-11-19T10:57:39;20.83;;;2.77;;
13114;SDS011;6623;52.120;8.660;2023-11-19T11:00:09;29.87;;;2.50;;
13114;SDS011;6623;52.120;8.660;2023-11-19T11:02:38;11.17;;;1.93;;
13114;SDS011;6623;52.120;8.660;2023-11-19T11:05:09;13.40;;;2.33;;
13114;SDS011;6623;52.120;8.660;2023-11-19T11:07:37;11.07;;;2.50;;
13114;SDS011;6623;52.120;8.660;2023-11-19T11:10:04;19.00;;;2.47;;
13114;SDS011;6623;52.120;8.660;2023-11-19T11:12:32;17.70;;;2.40;;
13114;SDS011;6623;52.120;8.660;2023-11-19T11:15:02;15.53;;;2.87;;
13114;SDS011;6623;52.120;8.660;2023-11-19T11:17:30;12.23;;;2.60;;
13114;SDS011;6623;52.120;8.660;2023-11-19T11:19:57;19.23;;;2.93;;
13114;SDS011;6623;52.120;8.660;2023-11-19T11:22:22;11.27;;;2.37;;
13114;SDS011;6623;52.120;8.660;2023-11-19T11:30:20;14.57;;;2.50;;
13114;SDS011;6623;52.120;8.660;2023-11-19T11:38:16;12.93;;;3.47;;
13114;SDS011;6623;52.120;8.660;2023-11-19T11:43:45;13.03;;;2.93;;
13114;SDS011;6623;52.120;8.660;2023-11-19T11:49:00;14.13;;;3.47;;
13114;SDS011;6623;52.120;8.660;2023-11-19T11:57:07;10.97;;;2.83;;
13114;SDS011;6623;52.120;8.660;2023-11-19T12:02:09;13.33;;;2.67;;
13114;SDS011;6623;52.120;8.660;2023-11-19T12:04:36;12.87;;;2.50;;
13114;SDS011;6623;52.120;8.660;2023-11-19T12:07:06;8.53;;;2.60;;
13114;SDS011;6623;52.120;8.660;2023-11-19T12:09:42;13.90;;;2.90;;
13114;SDS011;6623;52.120;8.660;2023-11-19T12:12:19;10.97;;;2.47;;
13114;SDS011;6623;52.120;8.660;2023-11-19T12:20:05;12.43;;;2.40;;
13114;SDS011;6623;52.120;8.660;2023-11-19T12:22:39;11.83;;;2.80;;
13114;SDS011;6623;52.120;8.660;2023-11-19T12:25:06;10.57;;;2.63;;
13114;SDS011;6623;52.120;8.660;2023-11-19T12:27:34;12.10;;;2.70;;
13114;SDS011;6623;52.120;8.660;2023-11-19T12:30:00;11.87;;;2.77;;
13114;SDS011;6623;52.120;8.660;2023-11-19T12:32:36;9.20;;;2.57;;
13114;SDS011;6623;52.120;8.660;2023-11-19T12:35:06;12.13;;;2.53;;
13114;SDS011;6623;52.120;8.660;2023-11-19T12:37:39;12.13;;;2.73;;
13114;SDS011;6623;52.120;8.660;2023-11-19T12:40:10;8.87;;;2.53;;
13114;SDS011;6623;52.120;8.660;2023-11-19T12:42:37;11.40;;;3.13;;
13114;SDS011;6623;52.120;8.660;2023-11-19T12:45:03;9.00;;;2.40;;
13114;SDS011;6623;52.120;8.660;2023-11-19T12:47:30;9.53;;;2.63;;
13114;SDS011;6623;52.120;8.660;2023-11-19T12:49:58;13.73;;;2.87;;
13114;SDS011;6623;52.120;8.660;2023-11-19T12:52:23;8.13;;;2.53;;
13114;SDS011;6623;52.120;8.660;2023-11-19T12:54:49;9.53;;;2.27;;
13114;SDS011;6623;52.120;8.660;2023-11-19T12:57:15;9.80;;;2.30;;
13114;SDS011;6623;52.120;8.660;2023-11-19T12:59:41;9.20;;;2.77;;
13114;SDS011;6623;52.120;8.660;2023-11-19T13:02:06;7.13;;;2.40;;
13114;SDS011;6623;52.120;8.660;2023-11-19T13:04:33;10.70;;;2.80;;
13114;SDS011;6623;52.120;8.660;2023-11-19T13:06:59;8.03;;;2.50;;
13114;SDS011;6623;52.120;8.660;2023-11-19T13:09:25;6.53;;;2.57;;
13114;SDS011;6623;52.120;8.660;2023-11-19T13:11:52;7.10;;;2.27;;
13114;SDS011;6623;52.120;8.660;2023-11-19T13:14:18;8.33;;;2.30;;
13114;SDS011;6623;52.120;8.660;2023-11-19T13:16:44;7.47;;;2.43;;
13114;SDS011;6623;52.120;8.660;2023-11-19T13:19:13;7.13;;;2.63;;
13114;SDS011;6623;52.120;8.660;2023-11-19T13:21:44;7.10;;;2.67;;
13114;SDS011;6623;52.120;8.660;2023-11-19T13:24:12;8.30;;;2.67;;
13114;SDS011;6623;52.120;8.660;2023-11-19T13:26:38;10.10;;;2.20;;
13114;SDS011;6623;52.120;8.660;2023-11-19T13:29:04;7.27;;;1.90;;
13114;SDS011;6623;52.120;8.660;2023-11-19T13:31:30;8.70;;;2.43;;
13114;SDS011;6623;52.120;8.660;2023-11-19T13:33:55;7.47;;;2.27;;
13114;SDS011;6623;52.120;8.660;2023-11-19T13:36:23;10.00;;;2.50;;
13114;SDS011;6623;52.120;8.660;2023-11-19T13:38:48;7.70;;;2.57;;
13114;SDS011;6623;52.120;8.660;2023-11-19T13:41:14;7.23;;;2.30;;
13114;SDS011;6623;52.120;8.660;2023-11-19T13:43:39;7.17;;;2.17;;
13114;SDS011;6623;52.120;8.660;2023-11-19T13:46:05;6.40;;;2.13;;
13114;SDS011;6623;52.120;8.660;2023-11-19T13:48:31;9.67;;;2.30;;
13114;SDS011;6623;52.120;8.660;2023-11-19T13:50:57;7.57;;;2.17;;
13114;SDS011;6623;52.120;8.660;2023-11-19T13:53:22;7.70;;;2.17;;
13114;SDS011;6623;52.120;8.660;2023-11-19T13:55:51;7.73;;;2.30;;
13114;SDS011;6623;52.120;8.660;2023-11-19T13:58:16;5.70;;;1.93;;
13114;SDS011;6623;52.120;8.660;2023-11-19T14:00:42;7.40;;;2.30;;
13114;SDS011;6623;52.120;8.660;2023-11-19T14:03:08;6.87;;;2.00;;
13114;SDS011;6623;52.120;8.660;2023-11-19T14:05:35;5.47;;;2.10;;
13114;SDS011;6623;52.120;8.660;2023-11-19T14:08:00;7.80;;;2.53;;
13114;SDS011;6623;52.120;8.660;2023-11-19T14:10:26;6.63;;;2.17;;
13114;SDS011;6623;52.120;8.660;2023-11-19T14:12:52;6.17;;;2.23;;
13114;SDS011;6623;52.120;8.660;2023-11-19T14:15:17;6.70;;;2.40;;
13114;SDS011;6623;52.120;8.660;2023-11-19T14:17:43;6.80;;;1.93;;
13114;SDS011;6623;52.120;8.660;2023-11-19T14:20:09;6.60;;;2.00;;
13114;SDS011;6623;52.120;8.660;2023-11-19T14:22:40;8.57;;;2.37;;
13114;SDS011;6623;52.120;8.660;2023-11-19T14:25:10;9.00;;;2.30;;
13114;SDS011;6623;52.120;8.660;2023-11-19T14:27:40;6.70;;;2.03;;
13114;SDS011;6623;52.120;8.660;2023-11-19T14:30:06;5.87;;;2.17;;
13114;SDS011;6623;52.120;8.660;2023-11-19T14:32:35;5.50;;;2.00;;
13114;SDS011;6623;52.120;8.660;2023-11-19T14:35:00;5.80;;;2.07;;
13114;SDS011;6623;52.120;8.660;2023-11-19T14:37:26;7.83;;;2.23;;
13114;SDS011;6623;52.120;8.660;2023-11-19T14:39:51;5.83;;;2.43;;
13114;SDS011;6623;52.120;8.660;2023-11-19T14:42:17;6.53;;;1.93;;
13114;SDS011;6623;52.120;8.660;2023-11-19T14:44:42;5.17;;;2.23;;
13114;SDS011;6623;52.120;8.660;2023-11-19T14:47:08;5.60;;;2.10;;
13114;SDS011;6623;52.120;8.660;2023-11-19T14:49:34;5.80;;;2.30;;
13114;SDS011;6623;52.120;8.660;2023-11-19T14:52:00;6.10;;;2.30;;
13114;SDS011;6623;52.120;8.660;2023-11-19T14:54:26;5.33;;;2.03;;
13114;SDS011;6623;52.120;8.660;2023-11-19T14:56:51;7.33;;;2.27;;
13114;SDS011;6623;52.120;8.660;2023-11-19T14:59:17;4.97;;;2.03;;
13114;SDS011;6623;52.120;8.660;2023-11-19T15:01:44;6.73;;;1.93;;
13114;SDS011;6623;52.120;8.660;2023-11-19T15:04:10;4.40;;;1.87;;
13114;SDS011;6623;52.120;8.660;2023-11-19T15:06:36;4.53;;;2.00;;
13114;SDS011;6623;52.120;8.660;2023-11-19T15:09:02;5.60;;;2.10;;
13114;SDS011;6623;52.120;8.660;2023-11-19T15:11:28;5.27;;;1.90;;
13114;SDS011;6623;52.120;8.660;2023-11-19T15:13:54;6.47;;;2.20;;
13114;SDS011;6623;52.120;8.660;2023-11-19T15:16:20;4.70;;;1.90;;
13114;SDS011;6623;52.120;8.660;2023-11-19T15:18:50;7.27;;;2.20;;
13114;SDS011;6623;52.120;8.660;2023-11-19T15:21:18;5.43;;;1.73;;
13114;SDS011;6623;52.120;8.660;2023-11-19T15:23:43;6.50;;;1.93;;
13114;SDS011;6623;52.120;8.660;2023-11-19T15:26:09;5.57;;;1.80;;
13114;SDS011;6623;52.120;8.660;2023-11-19T15:28:36;4.37;;;1.93;;
13114;SDS011;6623;52.120;8.660;2023-11-19T15:31:02;5.47;;;1.80;;